Time,TemperatureF,DewpointF,PressureIn,WindDirection,WindDirectionDegrees,WindSpeedMPH,WindSpeedGustMPH,Humidity,HourlyPrecipIn,Conditions,Clouds,dailyrainin,SoftwareType,DateUTC
2013-09-02 00:02:00,64.6,59.1,29.90,NNE,23,1.8,1.8,82,0.00,,,0.00,WUHU216HW,2013-09-02 07:02:00,
2013-09-02 00:07:00,64.6,59.1,29.90,ENE,68,1.8,2.2,82,0.00,,,0.00,WUHU216HW,2013-09-02 07:07:00,
2013-09-02 00:12:00,64.6,59.1,29.90,ENE,68,0.7,2.2,82,0.00,,,0.00,WUHU216HW,2013-09-02 07:12:00,
2013-09-02 00:17:00,64.6,59.1,29.90,NE,45,0.9,1.6,82,0.00,,,0.00,WUHU216HW,2013-09-02 07:17:00,
2013-09-02 00:22:00,64.4,58.9,29.90,ENE,68,0.4,1.6,82,0.00,,,0.00,WUHU216HW,2013-09-02 07:22:00,
2013-09-02 00:27:00,64.4,58.9,29.90,NE,45,0.4,1.8,82,0.00,,,0.00,WUHU216HW,2013-09-02 07:27:00,
2013-09-02 00:32:00,64.4,58.9,29.90,NE,45,0.9,1.8,82,0.00,,,0.00,WUHU216HW,2013-09-02 07:32:00,
2013-09-02 00:37:00,64.4,58.9,29.90,ENE,68,0.9,1.1,82,0.00,,,0.00,WUHU216HW,2013-09-02 07:37:00,
2013-09-02 00:42:00,64.4,58.9,29.90,North,0,0.4,1.8,82,0.00,,,0.00,WUHU216HW,2013-09-02 07:42:00,
2013-09-02 00:47:00,64.4,58.9,29.90,NNE,23,0.2,1.8,82,0.00,,,0.00,WUHU216HW,2013-09-02 07:47:00,
2013-09-02 00:52:00,64.4,58.9,29.90,NNE,23,1.3,1.3,82,0.00,,,0.00,WUHU216HW,2013-09-02 07:52:00,
2013-09-02 00:57:00,64.4,58.9,29.90,NE,45,0.7,1.3,82,0.00,,,0.00,WUHU216HW,2013-09-02 07:57:00,
2013-09-02 01:02:00,64.4,58.9,29.90,East,90,0.4,1.1,82,0.00,,,0.00,WUHU216HW,2013-09-02 08:02:00,
2013-09-02 01:07:00,64.4,58.9,29.90,NNE,23,1.6,1.6,82,0.00,,,0.00,WUHU216HW,2013-09-02 08:07:00,
2013-09-02 01:12:00,64.4,58.9,29.90,North,0,0.4,1.6,82,0.00,,,0.00,WUHU216HW,2013-09-02 08:12:00,
2013-09-02 01:17:00,64.4,58.9,29.89,NNE,23,0.7,1.1,82,0.00,,,0.00,WUHU216HW,2013-09-02 08:17:00,
2013-09-02 01:22:00,64.4,58.9,29.90,West,270,2.5,2.5,82,0.00,,,0.00,WUHU216HW,2013-09-02 08:22:00,
2013-09-02 01:27:00,64.6,59.1,29.90,West,270,1.1,2.5,82,0.00,,,0.00,WUHU216HW,2013-09-02 08:27:00,
2013-09-02 01:32:00,64.6,59.1,29.90,WSW,248,0.9,1.6,82,0.00,,,0.00,WUHU216HW,2013-09-02 08:32:00,
2013-09-02 01:37:00,64.6,59.1,29.90,WSW,248,0.2,1.6,82,0.00,,,0.00,WUHU216HW,2013-09-02 08:37:00,
2013-09-02 01:42:00,64.6,59.1,29.90,WSW,248,0.0,0.7,82,0.00,,,0.00,WUHU216HW,2013-09-02 08:42:00,
2013-09-02 01:47:00,64.6,59.1,29.90,WSW,248,0.0,0.2,82,0.00,,,0.00,WUHU216HW,2013-09-02 08:47:00,
2013-09-02 01:52:00,64.6,59.1,29.89,WSW,248,0.0,0.0,82,0.00,,,0.00,WUHU216HW,2013-09-02 08:52:00,
2013-09-02 01:57:00,64.6,59.1,29.90,East,90,1.6,1.6,82,0.00,,,0.00,WUHU216HW,2013-09-02 08:57:00,
2013-09-02 02:02:00,64.8,59.5,29.90,East,90,0.4,1.8,83,0.00,,,0.00,WUHU216HW,2013-09-02 09:02:00,
2013-09-02 02:07:00,64.8,59.5,29.90,ENE,68,0.9,1.8,83,0.00,,,0.00,WUHU216HW,2013-09-02 09:07:00,
2013-09-02 02:12:00,64.8,59.9,29.90,ENE,68,1.3,1.8,84,0.00,,,0.00,WUHU216HW,2013-09-02 09:12:00,
2013-09-02 02:17:00,64.8,59.5,29.90,NE,45,0.4,2.5,83,0.00,,,0.00,WUHU216HW,2013-09-02 09:17:00,
2013-09-02 02:22:00,64.8,59.9,29.89,NE,45,0.0,2.5,84,0.00,,,0.00,WUHU216HW,2013-09-02 09:22:00,
2013-09-02 02:27:00,64.8,59.5,29.89,North,0,0.7,2.5,83,0.00,,,0.00,WUHU216HW,2013-09-02 09:27:00,
2013-09-02 02:32:00,64.8,59.5,29.89,North,0,0.2,1.1,83,0.00,,,0.00,WUHU216HW,2013-09-02 09:32:00,
2013-09-02 02:37:00,64.8,59.5,29.89,NNE,23,0.7,1.1,83,0.00,,,0.00,WUHU216HW,2013-09-02 09:37:00,
2013-09-02 02:42:00,64.8,59.5,29.88,NW,315,0.4,1.1,83,0.00,,,0.00,WUHU216HW,2013-09-02 09:42:00,
2013-09-02 02:47:00,64.8,59.5,29.89,North,0,0.2,1.1,83,0.00,,,0.00,WUHU216HW,2013-09-02 09:47:00,
2013-09-02 02:52:00,64.8,59.9,29.89,North,0,0.2,0.4,84,0.00,,,0.00,WUHU216HW,2013-09-02 09:52:00,
2013-09-02 02:57:00,64.8,59.5,29.89,North,0,0.7,0.7,83,0.00,,,0.00,WUHU216HW,2013-09-02 09:57:00,
2013-09-02 03:02:00,64.8,59.5,29.89,NW,315,0.0,0.7,83,0.00,,,0.00,WUHU216HW,2013-09-02 10:02:00,
2013-09-02 03:07:00,64.8,59.5,29.89,SSW,203,0.9,0.9,83,0.00,,,0.00,WUHU216HW,2013-09-02 10:07:00,
2013-09-02 03:12:00,65.0,60.4,29.89,South,180,0.4,0.9,85,0.00,,,0.00,WUHU216HW,2013-09-02 10:12:00,
2013-09-02 03:17:00,65.0,60.0,29.89,North,0,1.1,1.1,84,0.00,,,0.00,WUHU216HW,2013-09-02 10:17:00,
2013-09-02 03:22:00,64.8,59.9,29.88,NNE,23,0.4,1.1,84,0.00,,,0.00,WUHU216HW,2013-09-02 10:22:00,
2013-09-02 03:27:00,65.0,60.0,29.88,ENE,68,0.4,1.1,84,0.00,,,0.00,WUHU216HW,2013-09-02 10:27:00,
2013-09-02 03:32:00,64.8,59.9,29.88,ENE,68,0.4,0.9,84,0.00,,,0.00,WUHU216HW,2013-09-02 10:32:00,
2013-09-02 03:39:00,64.8,59.9,29.88,NNE,23,0.0,1.1,84,0.00,,,0.00,WUHU216HW,2013-09-02 10:39:00,
2013-09-02 03:44:00,64.8,59.9,29.88,North,0,0.0,1.1,84,0.00,,,0.00,WUHU216HW,2013-09-02 10:44:00,
2013-09-02 03:49:00,64.8,59.9,29.88,West,270,1.6,1.8,84,0.00,,,0.00,WUHU216HW,2013-09-02 10:49:00,
2013-09-02 03:54:00,64.8,59.9,29.88,WNW,293,1.1,2.2,84,0.00,,,0.00,WUHU216HW,2013-09-02 10:54:00,
2013-09-02 03:59:00,64.8,59.9,29.88,West,270,0.7,3.1,84,0.00,,,0.00,WUHU216HW,2013-09-02 10:59:00,
2013-09-02 04:04:00,64.8,59.9,29.88,WNW,293,2.2,3.1,84,0.00,,,0.00,WUHU216HW,2013-09-02 11:04:00,
2013-09-02 04:09:00,64.8,60.2,29.88,WNW,293,0.4,3.8,85,0.00,,,0.00,WUHU216HW,2013-09-02 11:09:00,
2013-09-02 04:14:00,64.8,60.2,29.88,NNW,338,2.5,4.0,85,0.00,,,0.00,WUHU216HW,2013-09-02 11:14:00,
2013-09-02 04:19:00,64.6,59.7,29.88,North,0,1.1,4.0,84,0.00,,,0.00,WUHU216HW,2013-09-02 11:19:00,
2013-09-02 04:24:00,64.6,59.7,29.88,NW,315,3.4,3.4,84,0.00,,,0.00,WUHU216HW,2013-09-02 11:24:00,
2013-09-02 04:29:00,64.6,59.7,29.88,WNW,293,0.9,3.4,84,0.00,,,0.00,WUHU216HW,2013-09-02 11:29:00,
2013-09-02 04:34:00,64.4,59.5,29.88,NNW,338,0.4,3.4,84,0.00,,,0.00,WUHU216HW,2013-09-02 11:34:00,
2013-09-02 04:39:00,64.4,59.5,29.88,WNW,293,1.3,1.8,84,0.00,,,0.00,WUHU216HW,2013-09-02 11:39:00,
2013-09-02 04:44:00,64.4,59.5,29.88,West,270,1.8,2.5,84,0.00,,,0.00,WUHU216HW,2013-09-02 11:44:00,
2013-09-02 04:49:00,64.4,59.5,29.88,WNW,293,2.7,4.0,84,0.00,,,0.00,WUHU216HW,2013-09-02 11:49:00,
2013-09-02 04:54:00,64.3,59.3,29.88,WNW,293,0.4,4.0,84,0.00,,,0.00,WUHU216HW,2013-09-02 11:54:00,
2013-09-02 04:59:00,64.3,59.3,29.88,West,270,0.2,2.7,84,0.00,,,0.00,WUHU216HW,2013-09-02 11:59:00,
2013-09-02 05:04:00,64.3,59.3,29.89,WSW,248,0.0,1.8,84,0.00,,,0.00,WUHU216HW,2013-09-02 12:04:00,
2013-09-02 05:09:00,64.1,59.1,29.89,West,270,1.1,1.1,84,0.00,,,0.00,WUHU216HW,2013-09-02 12:09:00,
2013-09-02 05:14:00,64.1,59.1,29.89,WSW,248,1.3,1.3,84,0.00,,,0.00,WUHU216HW,2013-09-02 12:14:00,
2013-09-02 05:19:00,64.1,59.1,29.89,WNW,293,0.2,1.3,84,0.00,,,0.00,WUHU216HW,2013-09-02 12:19:00,
2013-09-02 05:24:00,64.1,59.1,29.89,WNW,293,0.0,1.1,84,0.00,,,0.00,WUHU216HW,2013-09-02 12:24:00,
2013-09-02 05:29:00,64.1,58.8,29.89,WNW,293,0.0,0.0,83,0.00,,,0.00,WUHU216HW,2013-09-02 12:29:00,
2013-09-02 05:34:00,63.9,59.0,29.89,North,0,0.7,1.1,84,0.00,,,0.00,WUHU216HW,2013-09-02 12:34:00,
2013-09-02 05:39:00,63.9,59.0,29.89,North,0,2.0,2.0,84,0.00,,,0.00,WUHU216HW,2013-09-02 12:39:00,
2013-09-02 05:44:00,63.9,59.0,29.89,NNE,23,0.7,2.0,84,0.00,,,0.00,WUHU216HW,2013-09-02 12:44:00,
2013-09-02 05:49:00,63.9,59.0,29.89,NNE,23,0.0,1.3,84,0.00,,,0.00,WUHU216HW,2013-09-02 12:49:00,
2013-09-02 05:54:00,63.9,59.0,29.89,North,0,0.7,1.3,84,0.00,,,0.00,WUHU216HW,2013-09-02 12:54:00,
2013-09-02 05:59:00,63.9,59.0,29.89,WNW,293,2.5,2.5,84,0.00,,,0.00,WUHU216HW,2013-09-02 12:59:00,
2013-09-02 06:04:00,63.7,58.8,29.89,WNW,293,0.9,2.5,84,0.00,,,0.00,WUHU216HW,2013-09-02 13:04:00,
2013-09-02 06:09:00,63.7,58.8,29.89,WSW,248,1.6,1.6,84,0.00,,,0.00,WUHU216HW,2013-09-02 13:09:00,
2013-09-02 06:14:00,63.7,58.8,29.89,North,0,0.4,1.6,84,0.00,,,0.00,WUHU216HW,2013-09-02 13:14:00,
2013-09-02 06:19:00,63.7,58.8,29.90,West,270,1.3,3.4,84,0.00,,,0.00,WUHU216HW,2013-09-02 13:19:00,
2013-09-02 06:24:00,63.7,58.8,29.89,WSW,248,1.1,3.4,84,0.00,,,0.00,WUHU216HW,2013-09-02 13:24:00,
2013-09-02 06:29:00,63.7,58.8,29.90,WSW,248,0.0,1.6,84,0.00,,,0.00,WUHU216HW,2013-09-02 13:29:00,
2013-09-02 06:34:00,63.7,58.8,29.90,WSW,248,0.0,0.0,84,0.00,,,0.00,WUHU216HW,2013-09-02 13:34:00,
2013-09-02 06:39:00,63.7,58.8,29.90,SSE,158,0.2,1.1,84,0.00,,,0.00,WUHU216HW,2013-09-02 13:39:00,
2013-09-02 06:44:00,63.7,58.8,29.90,ENE,68,1.1,1.1,84,0.00,,,0.00,WUHU216HW,2013-09-02 13:44:00,
2013-09-02 06:49:00,63.7,58.8,29.90,SE,135,0.2,1.3,84,0.00,,,0.00,WUHU216HW,2013-09-02 13:49:00,
2013-09-02 06:54:00,63.7,58.8,29.91,East,90,0.0,1.3,84,0.00,,,0.00,WUHU216HW,2013-09-02 13:54:00,
2013-09-02 06:59:00,63.7,58.8,29.91,WNW,293,1.8,1.8,84,0.00,,,0.00,WUHU216HW,2013-09-02 13:59:00,
2013-09-02 07:04:00,63.7,58.8,29.91,NNW,338,0.0,1.8,84,0.00,,,0.00,WUHU216HW,2013-09-02 14:04:00,
2013-09-02 07:09:00,63.7,58.8,29.91,West,270,0.2,1.8,84,0.00,,,0.00,WUHU216HW,2013-09-02 14:09:00,
2013-09-02 07:14:00,63.9,59.0,29.91,West,270,0.0,0.7,84,0.00,,,0.00,WUHU216HW,2013-09-02 14:14:00,
2013-09-02 07:19:00,63.9,59.0,29.91,ESE,113,1.1,1.1,84,0.00,,,0.00,WUHU216HW,2013-09-02 14:19:00,
2013-09-02 07:24:00,64.1,59.1,29.92,ESE,113,0.9,1.8,84,0.00,,,0.00,WUHU216HW,2013-09-02 14:24:00,
2013-09-02 07:29:00,64.1,59.1,29.92,East,90,1.1,1.8,84,0.00,,,0.00,WUHU216HW,2013-09-02 14:29:00,
2013-09-02 07:34:00,64.1,59.5,29.92,ENE,68,1.1,2.2,85,0.00,,,0.00,WUHU216HW,2013-09-02 14:34:00,
2013-09-02 07:39:00,64.3,59.7,29.92,ESE,113,0.7,2.2,85,0.00,,,0.00,WUHU216HW,2013-09-02 14:39:00,
2013-09-02 07:44:00,64.4,59.9,29.92,ENE,68,0.4,1.1,85,0.00,,,0.00,WUHU216HW,2013-09-02 14:44:00,
2013-09-02 07:49:00,64.4,59.5,29.92,South,180,1.6,1.6,84,0.00,,,0.00,WUHU216HW,2013-09-02 14:49:00,
2013-09-02 07:54:00,64.6,59.7,29.92,WSW,248,1.3,2.0,84,0.00,,,0.00,WUHU216HW,2013-09-02 14:54:00,
2013-09-02 07:59:00,64.8,60.2,29.92,SSE,158,1.8,2.0,85,0.00,,,0.00,WUHU216HW,2013-09-02 14:59:00,
2013-09-02 08:04:00,65.0,60.4,29.92,North,0,0.4,1.8,85,0.00,,,0.00,WUHU216HW,2013-09-02 15:04:00,
2013-09-02 08:09:00,65.2,60.2,29.92,NNW,338,0.2,1.3,84,0.00,,,0.00,WUHU216HW,2013-09-02 15:09:00,
2013-09-02 08:14:00,65.3,60.4,29.92,North,0,1.1,1.1,84,0.00,,,0.00,WUHU216HW,2013-09-02 15:14:00,
2013-09-02 08:19:00,65.3,60.4,29.92,North,0,0.0,1.1,84,0.00,,,0.00,WUHU216HW,2013-09-02 15:19:00,
2013-09-02 08:24:00,65.5,60.6,29.93,NE,45,0.4,2.5,84,0.00,,,0.00,WUHU216HW,2013-09-02 15:24:00,
2013-09-02 08:29:00,65.7,60.4,29.93,NE,45,0.0,2.5,83,0.00,,,0.00,WUHU216HW,2013-09-02 15:29:00,
2013-09-02 08:34:00,65.9,60.9,29.93,North,0,0.2,0.7,84,0.00,,,0.00,WUHU216HW,2013-09-02 15:34:00,
2013-09-02 08:39:00,66.1,60.8,29.93,ENE,68,1.1,1.1,83,0.00,,,0.00,WUHU216HW,2013-09-02 15:39:00,
2013-09-02 08:44:00,66.2,60.9,29.93,ENE,68,0.4,1.6,83,0.00,,,0.00,WUHU216HW,2013-09-02 15:44:00,
2013-09-02 08:49:00,66.2,60.9,29.93,North,0,0.2,1.6,83,0.00,,,0.00,WUHU216HW,2013-09-02 15:49:00,
2013-09-02 08:54:00,66.2,60.9,29.93,East,90,1.1,1.8,83,0.00,,,0.00,WUHU216HW,2013-09-02 15:54:00,
2013-09-02 08:59:00,66.6,60.9,29.93,East,90,0.2,1.8,82,0.00,,,0.00,WUHU216HW,2013-09-02 15:59:00,
2013-09-02 09:04:00,66.6,61.3,29.93,East,90,0.9,1.8,83,0.00,,,0.00,WUHU216HW,2013-09-02 16:04:00,
2013-09-02 09:09:00,67.1,61.5,29.93,ENE,68,0.4,2.5,82,0.00,,,0.00,WUHU216HW,2013-09-02 16:09:00,
2013-09-02 09:14:00,67.3,61.7,29.93,North,0,0.2,2.5,82,0.00,,,0.00,WUHU216HW,2013-09-02 16:14:00,
2013-09-02 09:19:00,67.5,61.6,29.93,ENE,68,0.2,2.2,81,0.00,,,0.00,WUHU216HW,2013-09-02 16:19:00,
2013-09-02 09:24:00,67.9,61.9,29.93,East,90,1.8,1.8,81,0.00,,,0.00,WUHU216HW,2013-09-02 16:24:00,
2013-09-02 09:29:00,68.0,61.7,29.93,NNE,23,1.3,2.5,80,0.00,,,0.00,WUHU216HW,2013-09-02 16:29:00,
2013-09-02 09:34:00,68.4,62.1,29.94,SSE,158,0.9,3.4,80,0.00,,,0.00,WUHU216HW,2013-09-02 16:34:00,
2013-09-02 09:39:00,68.4,62.1,29.93,SSE,158,0.2,3.4,80,0.00,,,0.00,WUHU216HW,2013-09-02 16:39:00,
2013-09-02 09:44:00,68.8,62.0,29.93,NNE,23,1.8,2.2,79,0.00,,,0.00,WUHU216HW,2013-09-02 16:44:00,
2013-09-02 09:49:00,68.8,62.0,29.93,WSW,248,2.0,2.2,79,0.00,,,0.00,WUHU216HW,2013-09-02 16:49:00,
2013-09-02 09:54:00,68.9,61.8,29.93,South,180,2.7,2.7,78,0.00,,,0.00,WUHU216HW,2013-09-02 16:54:00,
2013-09-02 09:59:00,68.8,61.7,29.94,South,180,1.1,4.0,78,0.00,,,0.00,WUHU216HW,2013-09-02 16:59:00,
2013-09-02 10:04:00,68.8,61.7,29.94,SSW,203,2.9,4.0,78,0.00,,,0.00,WUHU216HW,2013-09-02 17:04:00,
2013-09-02 10:09:00,68.9,61.8,29.94,SSE,158,1.1,2.9,78,0.00,,,0.00,WUHU216HW,2013-09-02 17:09:00,
2013-09-02 10:14:00,69.1,61.6,29.93,SW,225,2.7,2.7,77,0.00,,,0.00,WUHU216HW,2013-09-02 17:14:00,
2013-09-02 10:19:00,69.3,61.7,29.94,South,180,2.2,5.4,77,0.00,,,0.00,WUHU216HW,2013-09-02 17:19:00,
2013-09-02 10:24:00,69.5,61.9,29.93,East,90,1.3,5.4,77,0.00,,,0.00,WUHU216HW,2013-09-02 17:24:00,
2013-09-02 10:29:00,69.7,62.1,29.93,NE,45,0.7,2.7,77,0.00,,,0.00,WUHU216HW,2013-09-02 17:29:00,
2013-09-02 10:34:00,69.8,62.2,29.93,SW,225,4.0,4.0,77,0.00,,,0.00,WUHU216HW,2013-09-02 17:34:00,
2013-09-02 10:39:00,70.2,62.2,29.93,WSW,248,1.8,4.0,76,0.00,,,0.00,WUHU216HW,2013-09-02 17:39:00,
2013-09-02 10:44:00,70.7,62.0,29.93,SSW,203,3.8,3.8,74,0.00,,,0.00,WUHU216HW,2013-09-02 17:44:00,
2013-09-02 10:49:00,71.5,62.7,29.93,SSW,203,4.5,4.5,74,0.00,,,0.00,WUHU216HW,2013-09-02 17:49:00,
2013-09-02 10:54:00,71.6,62.6,29.93,SSW,203,2.7,4.5,73,0.00,,,0.00,WUHU216HW,2013-09-02 17:54:00,
2013-09-02 10:59:00,72.0,62.5,29.93,SE,135,3.8,3.8,72,0.00,,,0.00,WUHU216HW,2013-09-02 17:59:00,
2013-09-02 11:04:00,72.0,62.9,29.93,SSW,203,2.2,5.4,73,0.00,,,0.00,WUHU216HW,2013-09-02 18:04:00,
2013-09-02 11:09:00,72.2,63.1,29.93,SSE,158,3.4,5.4,73,0.00,,,0.00,WUHU216HW,2013-09-02 18:09:00,
2013-09-02 11:14:00,72.5,63.5,29.93,East,90,2.2,4.7,73,0.00,,,0.00,WUHU216HW,2013-09-02 18:14:00,
2013-09-02 11:19:00,73.3,63.7,29.93,SSE,158,2.2,2.7,72,0.00,,,0.00,WUHU216HW,2013-09-02 18:19:00,
2013-09-02 11:24:00,73.6,63.4,29.93,South,180,1.1,2.7,70,0.00,,,0.00,WUHU216HW,2013-09-02 18:24:00,
2013-09-02 11:29:00,74.2,63.8,29.93,NE,45,1.8,2.5,70,0.00,,,0.00,WUHU216HW,2013-09-02 18:29:00,
2013-09-02 11:34:00,75.1,63.4,29.93,ENE,68,4.0,4.0,67,0.00,,,0.00,WUHU216HW,2013-09-02 18:34:00,
2013-09-02 11:39:00,75.6,63.5,29.92,WSW,248,1.8,4.0,66,0.00,,,0.00,WUHU216HW,2013-09-02 18:39:00,
2013-09-02 11:44:00,75.8,63.6,29.92,WNW,293,4.0,4.0,66,0.00,,,0.00,WUHU216HW,2013-09-02 18:44:00,
2013-09-02 11:49:00,76.3,63.2,29.92,NNW,338,2.0,5.1,64,0.00,,,0.00,WUHU216HW,2013-09-02 18:49:00,
2013-09-02 11:54:00,77.0,63.5,29.92,WNW,293,3.8,5.1,63,0.00,,,0.00,WUHU216HW,2013-09-02 18:54:00,
2013-09-02 11:59:00,77.2,63.6,29.92,WSW,248,3.6,4.7,63,0.00,,,0.00,WUHU216HW,2013-09-02 18:59:00,
2013-09-02 12:04:00,77.2,63.2,29.92,WNW,293,3.4,5.4,62,0.00,,,0.00,WUHU216HW,2013-09-02 19:04:00,
2013-09-02 12:09:00,77.0,63.5,29.92,WNW,293,5.4,5.4,63,0.00,,,0.00,WUHU216HW,2013-09-02 19:09:00,
2013-09-02 12:14:00,76.9,63.3,29.92,West,270,4.0,5.4,63,0.00,,,0.00,WUHU216HW,2013-09-02 19:14:00,
2013-09-02 12:19:00,77.0,62.6,29.92,West,270,6.3,6.3,61,0.00,,,0.00,WUHU216HW,2013-09-02 19:19:00,
2013-09-02 12:24:00,77.0,63.0,29.92,NNW,338,1.8,6.3,62,0.00,,,0.00,WUHU216HW,2013-09-02 19:24:00,
2013-09-02 12:28:00,77.0,62.6,29.92,WNW,293,6.5,6.5,61,0.00,,,0.00,WUHU216HW,2013-09-02 19:28:00,
2013-09-02 12:33:00,77.4,62.9,29.92,NNW,338,2.7,6.5,61,0.00,,,0.00,WUHU216HW,2013-09-02 19:33:00,
2013-09-02 12:38:00,77.4,62.9,29.92,WNW,293,1.8,6.5,61,0.00,,,0.00,WUHU216HW,2013-09-02 19:38:00,
2013-09-02 12:44:00,77.8,63.3,29.92,WNW,293,0.9,6.5,61,0.00,,,0.00,WUHU216HW,2013-09-02 19:44:00,
2013-09-02 12:49:00,78.1,62.6,29.92,West,270,7.8,7.8,59,0.00,,,0.00,WUHU216HW,2013-09-02 19:49:00,
2013-09-02 12:54:00,78.5,63.0,29.92,West,270,6.3,7.8,59,0.00,,,0.00,WUHU216HW,2013-09-02 19:54:00,
2013-09-02 12:59:00,79.0,63.5,29.91,WSW,248,6.3,7.4,59,0.00,,,0.00,WUHU216HW,2013-09-02 19:59:00,
2013-09-02 13:04:00,79.6,63.6,29.91,NW,315,3.8,6.3,58,0.00,,,0.00,WUHU216HW,2013-09-02 20:04:00,
2013-09-02 13:09:00,80.1,62.9,29.91,SW,225,2.5,7.6,56,0.00,,,0.00,WUHU216HW,2013-09-02 20:09:00,
2013-09-02 13:14:00,80.3,63.1,29.91,West,270,5.1,8.3,56,0.00,,,0.00,WUHU216HW,2013-09-02 20:14:00,
2013-09-02 13:19:00,80.6,63.5,29.91,West,270,5.4,8.3,56,0.00,,,0.00,WUHU216HW,2013-09-02 20:19:00,
2013-09-02 13:23:00,80.5,62.7,29.91,WSW,248,1.6,5.4,55,0.00,,,0.00,WUHU216HW,2013-09-02 20:23:00,
2013-09-02 13:29:00,79.7,62.7,29.91,West,270,6.3,6.3,56,0.00,,,0.00,WUHU216HW,2013-09-02 20:29:00,
2013-09-02 13:34:00,79.6,63.0,29.91,North,0,1.1,6.3,57,0.00,,,0.00,WUHU216HW,2013-09-02 20:34:00,
2013-09-02 13:39:00,79.9,62.8,29.90,WNW,293,2.2,4.0,56,0.00,,,0.00,WUHU216HW,2013-09-02 20:39:00,
2013-09-02 13:44:00,80.3,63.1,29.90,South,180,1.6,4.0,56,0.00,,,0.00,WUHU216HW,2013-09-02 20:44:00,
2013-09-02 13:48:00,81.0,62.7,29.90,WSW,248,7.2,7.2,54,0.00,,,0.00,WUHU216HW,2013-09-02 20:48:00,
2013-09-02 13:53:00,81.4,63.0,29.90,SE,135,1.8,7.2,54,0.00,,,0.00,WUHU216HW,2013-09-02 20:53:00,
2013-09-02 13:58:00,81.5,62.2,29.90,WNW,293,6.9,6.9,52,0.00,,,0.00,WUHU216HW,2013-09-02 20:58:00,
2013-09-02 14:03:00,81.9,61.9,29.90,WNW,293,6.9,6.9,51,0.00,,,0.00,WUHU216HW,2013-09-02 21:03:00,
2013-09-02 14:09:00,82.3,62.3,29.90,WSW,248,8.1,8.1,51,0.00,,,0.00,WUHU216HW,2013-09-02 21:09:00,
2013-09-02 14:14:00,82.4,62.5,29.90,SSW,203,5.4,8.1,51,0.00,,,0.00,WUHU216HW,2013-09-02 21:14:00,
2013-09-02 14:19:00,82.8,61.7,29.89,NW,315,6.7,6.7,49,0.00,,,0.00,WUHU216HW,2013-09-02 21:19:00,
2013-09-02 14:24:00,82.4,62.5,29.89,West,270,2.9,6.9,51,0.00,,,0.00,WUHU216HW,2013-09-02 21:24:00,
2013-09-02 14:29:00,82.4,61.9,29.89,WSW,248,6.7,6.9,50,0.00,,,0.00,WUHU216HW,2013-09-02 21:29:00,
2013-09-02 14:34:00,82.4,61.9,29.89,West,270,4.0,6.7,50,0.00,,,0.00,WUHU216HW,2013-09-02 21:34:00,
2013-09-02 14:39:00,82.4,63.0,29.89,WSW,248,8.5,8.5,52,0.00,,,0.00,WUHU216HW,2013-09-02 21:39:00,
2013-09-02 14:44:00,82.4,61.3,29.89,South,180,5.6,8.5,49,0.00,,,0.00,WUHU216HW,2013-09-02 21:44:00,
2013-09-02 14:49:00,81.7,61.8,29.89,SSW,203,1.3,6.9,51,0.00,,,0.00,WUHU216HW,2013-09-02 21:49:00,
2013-09-02 14:54:00,81.5,61.7,29.89,West,270,7.2,7.2,51,0.00,,,0.00,WUHU216HW,2013-09-02 21:54:00,
2013-09-02 14:59:00,81.4,62.0,29.89,WNW,293,2.2,7.2,52,0.00,,,0.00,WUHU216HW,2013-09-02 21:59:00,
2013-09-02 15:04:00,81.2,60.8,29.88,WSW,248,4.7,6.9,50,0.00,,,0.00,WUHU216HW,2013-09-02 22:04:00,
2013-09-02 15:09:00,80.8,61.0,29.88,WSW,248,7.2,7.2,51,0.00,,,0.00,WUHU216HW,2013-09-02 22:09:00,
2013-09-02 15:14:00,81.2,61.3,29.88,West,270,6.3,7.2,51,0.00,,,0.00,WUHU216HW,2013-09-02 22:14:00,
2013-09-02 15:19:00,81.4,61.5,29.88,West,270,4.0,6.3,51,0.00,,,0.00,WUHU216HW,2013-09-02 22:19:00,
2013-09-02 15:24:00,81.7,61.3,29.88,West,270,6.9,6.9,50,0.00,,,0.00,WUHU216HW,2013-09-02 22:24:00,
2013-09-02 15:29:00,81.4,61.5,29.88,NNW,338,1.1,6.9,51,0.00,,,0.00,WUHU216HW,2013-09-02 22:29:00,
2013-09-02 15:34:00,81.2,60.8,29.87,NNW,338,4.3,7.4,50,0.00,,,0.00,WUHU216HW,2013-09-02 22:34:00,
2013-09-02 15:39:00,81.2,61.3,29.88,SW,225,3.6,7.4,51,0.00,,,0.00,WUHU216HW,2013-09-02 22:39:00,
2013-09-02 15:44:00,81.0,61.1,29.87,SW,225,4.7,9.2,51,0.00,,,0.00,WUHU216HW,2013-09-02 22:44:00,
2013-09-02 15:49:00,80.8,60.5,29.87,WNW,293,6.5,9.2,50,0.00,,,0.00,WUHU216HW,2013-09-02 22:49:00,
2013-09-02 15:54:00,80.1,60.3,29.87,WNW,293,3.1,9.8,51,0.00,,,0.00,WUHU216HW,2013-09-02 22:54:00,
2013-09-02 15:59:00,79.6,60.4,29.87,WSW,248,4.9,9.8,52,0.00,,,0.00,WUHU216HW,2013-09-02 22:59:00,
2013-09-02 16:04:00,79.2,60.6,29.87,West,270,4.0,9.8,53,0.00,,,0.00,WUHU216HW,2013-09-02 23:04:00,
2013-09-02 16:08:00,78.8,61.3,29.87,West,270,3.8,9.2,55,0.00,,,0.00,WUHU216HW,2013-09-02 23:08:00,
2013-09-02 16:13:00,78.8,61.3,29.87,West,270,7.6,9.2,55,0.00,,,0.00,WUHU216HW,2013-09-02 23:13:00,
2013-09-02 16:18:00,78.5,61.5,29.87,West,270,4.3,7.8,56,0.00,,,0.00,WUHU216HW,2013-09-02 23:18:00,
2013-09-02 16:23:00,78.5,61.5,29.87,WSW,248,5.4,7.8,56,0.00,,,0.00,WUHU216HW,2013-09-02 23:23:00,
2013-09-02 16:28:00,78.3,61.3,29.87,West,270,5.1,7.6,56,0.00,,,0.00,WUHU216HW,2013-09-02 23:28:00,
2013-09-02 16:33:00,78.1,61.1,29.87,West,270,2.5,7.6,56,0.00,,,0.00,WUHU216HW,2013-09-02 23:33:00,
2013-09-02 16:38:00,77.9,60.9,29.87,WSW,248,3.4,6.0,56,0.00,,,0.00,WUHU216HW,2013-09-02 23:38:00,
2013-09-02 16:43:00,77.8,61.3,29.87,WSW,248,4.7,4.7,57,0.00,,,0.00,WUHU216HW,2013-09-02 23:43:00,
2013-09-02 16:48:00,77.4,60.9,29.87,West,270,1.8,4.7,57,0.00,,,0.00,WUHU216HW,2013-09-02 23:48:00,
2013-09-02 16:53:00,77.4,60.9,29.87,WSW,248,5.6,5.6,57,0.00,,,0.00,WUHU216HW,2013-09-02 23:53:00,
2013-09-02 16:58:00,77.0,60.6,29.87,WSW,248,5.1,6.3,57,0.00,,,0.00,WUHU216HW,2013-09-02 23:58:00,
2013-09-02 17:03:00,76.7,60.8,29.87,West,270,4.9,9.6,58,0.00,,,0.00,WUHU216HW,2013-09-03 00:03:00,
2013-09-02 17:08:00,76.5,61.1,29.87,WSW,248,3.1,9.6,59,0.00,,,0.00,WUHU216HW,2013-09-03 00:08:00,
2013-09-02 17:13:00,76.3,61.5,29.87,North,0,2.5,8.7,60,0.00,,,0.00,WUHU216HW,2013-09-03 00:13:00,
2013-09-02 17:18:00,76.0,61.6,29.87,West,270,3.6,8.7,61,0.00,,,0.00,WUHU216HW,2013-09-03 00:18:00,
2013-09-02 17:23:00,76.0,61.6,29.87,SSW,203,1.3,5.8,61,0.00,,,0.00,WUHU216HW,2013-09-03 00:23:00,
2013-09-02 17:28:00,75.6,61.7,29.87,West,270,5.8,7.4,62,0.00,,,0.00,WUHU216HW,2013-09-03 00:28:00,
2013-09-02 17:33:00,75.4,61.5,29.86,West,270,5.1,8.5,62,0.00,,,0.00,WUHU216HW,2013-09-03 00:33:00,
2013-09-02 17:38:00,75.2,61.4,29.87,SSW,203,3.8,8.5,62,0.00,,,0.00,WUHU216HW,2013-09-03 00:38:00,
2013-09-02 17:43:00,75.1,61.6,29.87,West,270,6.3,6.9,63,0.00,,,0.00,WUHU216HW,2013-09-03 00:43:00,
2013-09-02 17:48:00,74.9,61.5,29.87,West,270,2.5,7.2,63,0.00,,,0.00,WUHU216HW,2013-09-03 00:48:00,
2013-09-02 17:53:00,74.7,61.3,29.87,WSW,248,5.8,7.2,63,0.00,,,0.00,WUHU216HW,2013-09-03 00:53:00,
2013-09-02 17:58:00,74.5,61.6,29.87,West,270,4.0,6.3,64,0.00,,,0.00,WUHU216HW,2013-09-03 00:58:00,
2013-09-02 18:03:00,74.3,61.4,29.87,West,270,3.4,5.4,64,0.00,,,0.00,WUHU216HW,2013-09-03 01:03:00,
2013-09-02 18:08:00,74.2,61.7,29.87,WNW,293,5.6,5.6,65,0.00,,,0.00,WUHU216HW,2013-09-03 01:08:00,
2013-09-02 18:13:00,73.8,61.8,29.87,SSW,203,4.3,8.3,66,0.00,,,0.00,WUHU216HW,2013-09-03 01:13:00,
2013-09-02 18:18:00,73.4,61.4,29.87,West,270,2.5,8.3,66,0.00,,,0.00,WUHU216HW,2013-09-03 01:18:00,
2013-09-02 18:23:00,73.4,61.4,29.87,SW,225,3.1,6.9,66,0.00,,,0.00,WUHU216HW,2013-09-03 01:23:00,
2013-09-02 18:28:00,73.1,61.0,29.87,West,270,3.4,3.8,66,0.00,,,0.00,WUHU216HW,2013-09-03 01:28:00,
2013-09-02 18:33:00,72.9,60.8,29.87,WSW,248,3.6,4.0,66,0.00,,,0.00,WUHU216HW,2013-09-03 01:33:00,
2013-09-02 18:38:00,72.7,61.1,29.87,South,180,2.2,4.0,67,0.00,,,0.00,WUHU216HW,2013-09-03 01:38:00,
2013-09-02 18:43:00,72.5,61.8,29.87,WSW,248,5.4,5.6,69,0.00,,,0.00,WUHU216HW,2013-09-03 01:43:00,
2013-09-02 18:48:00,72.2,61.5,29.87,SW,225,3.1,5.6,69,0.00,,,0.00,WUHU216HW,2013-09-03 01:48:00,
2013-09-02 18:53:00,72.0,61.7,29.87,West,270,2.0,4.7,70,0.00,,,0.00,WUHU216HW,2013-09-03 01:53:00,
2013-09-02 18:58:00,71.6,61.4,29.87,WSW,248,2.9,4.7,70,0.00,,,0.00,WUHU216HW,2013-09-03 01:58:00,
2013-09-02 19:03:00,71.6,60.9,29.87,West,270,3.4,4.7,69,0.00,,,0.00,WUHU216HW,2013-09-03 02:03:00,
2013-09-02 19:08:00,71.5,61.2,29.87,WSW,248,3.6,4.9,70,0.00,,,0.00,WUHU216HW,2013-09-03 02:08:00,
2013-09-02 19:13:00,71.3,61.0,29.87,WSW,248,3.8,6.3,70,0.00,,,0.00,WUHU216HW,2013-09-03 02:13:00,
2013-09-02 19:18:00,71.3,61.0,29.87,West,270,3.6,6.5,70,0.00,,,0.00,WUHU216HW,2013-09-03 02:18:00,
2013-09-02 19:23:00,71.1,60.8,29.87,WSW,248,3.1,6.5,70,0.00,,,0.00,WUHU216HW,2013-09-03 02:23:00,
2013-09-02 19:28:00,71.1,60.8,29.87,SSW,203,4.0,6.3,70,0.00,,,0.00,WUHU216HW,2013-09-03 02:28:00,
2013-09-02 19:33:00,70.9,60.7,29.87,WSW,248,2.5,6.3,70,0.00,,,0.00,WUHU216HW,2013-09-03 02:33:00,
2013-09-02 19:38:00,70.9,61.0,29.87,WSW,248,4.3,6.3,71,0.00,,,0.00,WUHU216HW,2013-09-03 02:38:00,
2013-09-02 19:43:00,70.7,60.8,29.87,West,270,2.5,7.2,71,0.00,,,0.00,WUHU216HW,2013-09-03 02:43:00,
2013-09-02 19:48:00,70.6,60.7,29.88,WSW,248,5.1,7.2,71,0.00,,,0.00,WUHU216HW,2013-09-03 02:48:00,
2013-09-02 19:53:00,70.4,60.8,29.87,WSW,248,2.7,6.3,72,0.00,,,0.00,WUHU216HW,2013-09-03 02:53:00,
2013-09-02 19:58:00,70.2,60.7,29.87,West,270,6.3,6.3,72,0.00,,,0.00,WUHU216HW,2013-09-03 02:58:00,
2013-09-02 20:03:00,70.0,60.5,29.87,West,270,6.3,6.3,72,0.00,,,0.00,WUHU216HW,2013-09-03 03:03:00,
2013-09-02 20:08:00,69.8,60.3,29.87,West,270,7.4,7.4,72,0.00,,,0.00,WUHU216HW,2013-09-03 03:08:00,
2013-09-02 20:13:00,69.7,60.6,29.88,SW,225,4.0,7.4,73,0.00,,,0.00,WUHU216HW,2013-09-03 03:13:00,
2013-09-02 20:18:00,69.5,60.4,29.88,West,270,2.0,8.1,73,0.00,,,0.00,WUHU216HW,2013-09-03 03:18:00,
2013-09-02 20:23:00,69.3,60.6,29.89,West,270,1.8,8.1,74,0.00,,,0.00,WUHU216HW,2013-09-03 03:23:00,
2013-09-02 20:28:00,69.1,60.5,29.89,WSW,248,4.7,4.7,74,0.00,,,0.00,WUHU216HW,2013-09-03 03:28:00,
2013-09-02 20:33:00,69.1,60.5,29.89,SW,225,2.9,4.7,74,0.00,,,0.00,WUHU216HW,2013-09-03 03:33:00,
2013-09-02 20:38:00,68.8,60.1,29.89,SE,135,2.5,2.9,74,0.00,,,0.00,WUHU216HW,2013-09-03 03:38:00,
2013-09-02 20:43:00,68.8,60.1,29.90,SSW,203,1.1,2.9,74,0.00,,,0.00,WUHU216HW,2013-09-03 03:43:00,
2013-09-02 20:48:00,68.6,59.9,29.90,SSW,203,0.4,1.8,74,0.00,,,0.00,WUHU216HW,2013-09-03 03:48:00,
2013-09-02 20:53:00,68.4,60.2,29.90,NNW,338,0.9,3.6,75,0.00,,,0.00,WUHU216HW,2013-09-03 03:53:00,
2013-09-02 20:58:00,68.4,60.2,29.90,SSE,158,3.8,3.8,75,0.00,,,0.00,WUHU216HW,2013-09-03 03:58:00,
2013-09-02 21:01:00,68.2,60.0,29.90,SE,135,0.4,3.8,75,0.00,,,0.00,WUHU216HW,2013-09-03 04:01:00,
2013-09-02 21:06:00,68.0,59.9,29.90,SE,135,1.1,3.8,75,0.00,,,0.00,WUHU216HW,2013-09-03 04:06:00,
2013-09-02 21:11:00,68.0,60.2,29.90,SE,135,2.9,2.9,76,0.00,,,0.00,WUHU216HW,2013-09-03 04:11:00,
2013-09-02 21:16:00,68.0,60.2,29.90,SSE,158,1.8,2.9,76,0.00,,,0.00,WUHU216HW,2013-09-03 04:16:00,
2013-09-02 21:21:00,67.9,60.4,29.90,South,180,1.8,2.7,77,0.00,,,0.00,WUHU216HW,2013-09-03 04:21:00,
2013-09-02 21:26:00,67.7,60.2,29.90,SW,225,2.5,3.6,77,0.00,,,0.00,WUHU216HW,2013-09-03 04:26:00,
2013-09-02 21:31:00,67.5,60.0,29.90,SSW,203,0.9,3.6,77,0.00,,,0.00,WUHU216HW,2013-09-03 04:31:00,
2013-09-02 21:36:00,67.3,59.9,29.91,WSW,248,1.3,3.1,77,0.00,,,0.00,WUHU216HW,2013-09-03 04:36:00,
2013-09-02 21:41:00,67.3,59.9,29.91,SSW,203,1.3,3.1,77,0.00,,,0.00,WUHU216HW,2013-09-03 04:41:00,
2013-09-02 21:46:00,67.1,60.1,29.90,SW,225,0.4,1.8,78,0.00,,,0.00,WUHU216HW,2013-09-03 04:46:00,
2013-09-02 21:51:00,67.0,60.0,29.90,WNW,293,0.4,1.8,78,0.00,,,0.00,WUHU216HW,2013-09-03 04:51:00,
2013-09-02 21:56:00,66.8,59.8,29.91,SSW,203,1.1,1.8,78,0.00,,,0.00,WUHU216HW,2013-09-03 04:56:00,
2013-09-02 22:01:00,66.6,59.6,29.91,NW,315,0.4,1.8,78,0.00,,,0.00,WUHU216HW,2013-09-03 05:01:00,
2013-09-02 22:06:00,66.4,59.4,29.91,WNW,293,1.1,1.3,78,0.00,,,0.00,WUHU216HW,2013-09-03 05:06:00,
2013-09-02 22:11:00,66.4,59.8,29.91,WNW,293,1.1,4.0,79,0.00,,,0.00,WUHU216HW,2013-09-03 05:11:00,
2013-09-02 22:16:00,66.2,59.6,29.90,WNW,293,1.3,4.0,79,0.00,,,0.00,WUHU216HW,2013-09-03 05:16:00,
2013-09-02 22:21:00,66.1,59.8,29.91,WNW,293,1.1,1.6,80,0.00,,,0.00,WUHU216HW,2013-09-03 05:21:00,
2013-09-02 22:26:00,65.9,59.6,29.91,West,270,1.6,2.0,80,0.00,,,0.00,WUHU216HW,2013-09-03 05:26:00,
2013-09-02 22:31:00,65.9,59.6,29.91,WSW,248,3.4,3.4,80,0.00,,,0.00,WUHU216HW,2013-09-03 05:31:00,
2013-09-02 22:36:00,65.7,59.8,29.91,NW,315,1.6,3.4,81,0.00,,,0.00,WUHU216HW,2013-09-03 05:36:00,
2013-09-02 22:41:00,65.7,59.8,29.91,WNW,293,0.4,2.2,81,0.00,,,0.00,WUHU216HW,2013-09-03 05:41:00,
2013-09-02 22:46:00,65.5,59.6,29.91,North,0,1.1,2.2,81,0.00,,,0.00,WUHU216HW,2013-09-03 05:46:00,
2013-09-02 22:51:00,65.3,59.4,29.91,North,0,0.2,1.3,81,0.00,,,0.00,WUHU216HW,2013-09-03 05:51:00,
2013-09-02 22:56:00,65.3,59.4,29.91,WNW,293,0.2,0.7,81,0.00,,,0.00,WUHU216HW,2013-09-03 05:56:00,
2013-09-02 23:01:00,65.2,59.5,29.91,WSW,248,0.0,1.6,82,0.00,,,0.00,WUHU216HW,2013-09-03 06:01:00,
2013-09-02 23:06:00,65.2,59.5,29.91,NW,315,0.0,1.6,82,0.00,,,0.00,WUHU216HW,2013-09-03 06:06:00,
2013-09-02 23:11:00,65.0,59.7,29.91,North,0,0.4,1.1,83,0.00,,,0.00,WUHU216HW,2013-09-03 06:11:00,
2013-09-02 23:16:00,65.0,59.7,29.91,NNE,23,0.0,1.1,83,0.00,,,0.00,WUHU216HW,2013-09-03 06:16:00,
2013-09-02 23:21:00,64.8,59.2,29.91,NNE,23,0.0,1.1,82,0.00,,,0.00,WUHU216HW,2013-09-03 06:21:00,
2013-09-02 23:26:00,64.8,59.2,29.91,NNE,23,0.0,0.4,82,0.00,,,0.00,WUHU216HW,2013-09-03 06:26:00,
2013-09-02 23:31:00,64.8,59.9,29.92,SSW,203,1.3,1.6,84,0.00,,,0.00,WUHU216HW,2013-09-03 06:31:00,
2013-09-02 23:36:00,64.6,59.3,29.92,SW,225,1.1,2.5,83,0.00,,,0.00,WUHU216HW,2013-09-03 06:36:00,
2013-09-02 23:41:00,64.4,58.9,29.92,West,270,1.1,2.5,82,0.00,,,0.00,WUHU216HW,2013-09-03 06:41:00,
2013-09-02 23:46:00,64.4,58.9,29.92,West,270,0.9,2.5,82,0.00,,,0.00,WUHU216HW,2013-09-03 06:46:00,
2013-09-02 23:51:00,64.3,58.7,29.92,WSW,248,0.4,1.8,82,0.00,,,0.00,WUHU216HW,2013-09-03 06:51:00,
2013-09-02 23:56:00,64.1,58.5,29.92,WSW,248,0.7,1.8,82,0.00,,,0.00,WUHU216HW,2013-09-03 06:56:00,